Time;durP1;ratioP1;P1;durP2;ratioP2;P2;SDS_P1;SDS_P2;PMS_P1;PMS_P2;Temp;Humidity;BMP_temperature;BMP_pressure;BME280_temperature;BME280_humidity;BME280_pressure;Samples;Min_cycle;Max_cycle;Signal;HPM_P1;HPM_P2
2022/09/15 00:00:56;;;;;;;16.65;11.55;;;;;;;19.73;100.00;99834.31;5096480;28;20105;-72
2022/09/15 00:03:22;;;;;;;20.63;13.88;;;;;;;19.69;100.00;99830.59;5093231;28;20528;-72
2022/09/15 00:05:48;;;;;;;24.67;17.25;;;;;;;19.59;100.00;99834.81;5096135;28;20024;-72
2022/09/15 00:08:14;;;;;;;26.00;16.55;;;;;;;19.57;100.00;99840.00;5041220;28;20036;-72
2022/09/15 00:11:07;;;;;;;36.33;21.67;;;;;;;19.45;100.00;99843.78;5060142;28;20028;-72
2022/09/15 00:13:33;;;;;;;23.88;14.70;;;;;;;19.48;100.00;99848.66;5073343;28;20032;-72
2022/09/15 00:15:59;;;;;;;32.97;20.25;;;;;;;19.36;100.00;99846.81;5055710;28;20116;-72
2022/09/15 00:18:24;;;;;;;23.45;15.60;;;;;;;19.37;100.00;99847.63;5073727;28;20029;-72
2022/09/15 00:20:50;;;;;;;18.40;12.40;;;;;;;19.40;100.00;99853.34;5057879;28;20120;-72
2022/09/15 00:23:16;;;;;;;27.80;18.00;;;;;;;19.30;100.00;99856.72;5073959;28;20036;-72
2022/09/15 00:25:46;;;;;;;20.23;13.30;;;;;;;19.33;100.00;99853.16;5077865;28;20043;-72
2022/09/15 00:28:12;;;;;;;18.02;12.60;;;;;;;19.33;100.00;99861.63;5073777;28;20028;-72
2022/09/15 00:30:42;;;;;;;26.92;16.95;;;;;;;19.30;100.00;99858.72;5094608;28;20098;-72
2022/09/15 00:33:07;;;;;;;22.33;13.45;;;;;;;19.23;100.00;99858.59;5026516;28;20473;-72
2022/09/15 00:35:36;;;;;;;19.75;12.48;;;;;;;19.26;100.00;99860.66;5095175;28;20047;-72
2022/09/15 00:38:02;;;;;;;30.30;16.27;;;;;;;19.21;100.00;99858.94;5076621;28;20040;-72
2022/09/15 00:40:27;;;;;;;24.30;15.10;;;;;;;19.17;100.00;99858.06;5076273;28;20085;-72
2022/09/15 00:42:53;;;;;;;17.50;12.23;;;;;;;19.20;100.00;99860.94;5077677;28;20039;-72
2022/09/15 00:45:18;;;;;;;22.30;15.35;;;;;;;19.18;100.00;99856.88;5077335;28;20153;-72
2022/09/15 00:47:44;;;;;;;23.98;15.25;;;;;;;19.13;100.00;99855.16;5047210;28;20515;-72
2022/09/15 00:50:15;;;;;;;17.63;11.43;;;;;;;19.09;100.00;99859.09;5070063;28;20507;-72
2022/09/15 00:52:49;;;;;;;23.45;15.02;;;;;;;18.99;100.00;99860.44;5059135;28;20596;-72
2022/09/15 00:55:35;;;;;;;26.13;15.32;;;;;;;19.03;100.00;99868.97;5058137;28;20509;-72
2022/09/15 00:58:05;;;;;;;18.55;12.35;;;;;;;19.05;100.00;99873.06;5057573;28;20120;-72
2022/09/15 01:00:31;;;;;;;25.13;13.88;;;;;;;18.99;100.00;99868.91;5095841;28;20082;-72
2022/09/15 01:02:57;;;;;;;17.23;12.02;;;;;;;19.02;100.00;99870.97;5060521;28;20476;-72
2022/09/15 01:05:26;;;;;;;17.85;10.75;;;;;;;18.98;100.00;99870.09;5063683;28;20036;-72
2022/09/15 01:08:22;;;;;;;18.02;10.20;;;;;;;19.05;100.00;99872.25;5059788;28;20072;-72
2022/09/15 01:10:50;;;;;;;20.10;11.88;;;;;;;18.97;100.00;99866.47;5078090;28;20032;-72
2022/09/15 01:13:16;;;;;;;13.25;8.10;;;;;;;19.02;100.00;99867.34;5091460;28;20032;-72
2022/09/15 01:15:45;;;;;;;15.45;9.38;;;;;;;19.03;100.00;99871.78;5091201;28;20036;-72
2022/09/15 01:18:46;;;;;;;14.75;10.00;;;;;;;19.03;100.00;99877.41;5091756;28;20369;-72
2022/09/15 01:21:25;;;;;;;12.00;7.75;;;;;;;19.04;100.00;99884.69;5056066;28;20024;-72
2022/09/15 01:24:21;;;;;;;9.38;6.40;;;;;;;19.07;100.00;99883.94;5095239;28;20389;-72
2022/09/15 01:27:14;;;;;;;15.88;8.23;;;;;;;19.09;100.00;99881.59;5095107;28;20054;-72
2022/09/15 01:30:08;;;;;;;8.95;6.30;;;;;;;19.08;100.00;99885.56;5077666;28;20064;-72
2022/09/15 01:33:05;;;;;;;10.48;7.15;;;;;;;19.03;100.00;99883.88;5067811;28;20036;-72
2022/09/15 01:35:48;;;;;;;10.60;7.22;;;;;;;19.05;100.00;99877.88;5073546;28;20032;-72
2022/09/15 01:38:48;;;;;;;9.15;7.03;;;;;;;19.06;100.00;99876.72;5075571;28;20034;-72
2022/09/15 01:41:17;;;;;;;10.02;6.10;;;;;;;19.07;100.00;99881.13;5056666;28;20028;-72
2022/09/15 01:44:04;;;;;;;9.55;5.82;;;;;;;19.09;100.00;99878.78;5090956;28;20492;-72
2022/09/15 01:46:32;;;;;;;9.18;6.22;;;;;;;19.08;100.00;99886.38;5071716;28;20427;-72
2022/09/15 01:48:57;;;;;;;8.23;6.00;;;;;;;19.06;100.00;99887.97;5050671;28;20035;-72
2022/09/15 01:51:23;;;;;;;7.53;4.80;;;;;;;19.07;100.00;99881.13;5075254;28;20020;-72
2022/09/15 01:53:49;;;;;;;7.10;4.90;;;;;;;19.05;100.00;99875.06;5057874;28;20044;-72
2022/09/15 01:56:14;;;;;;;6.63;4.72;;;;;;;19.07;100.00;99881.94;5073837;28;20032;-72
2022/09/15 01:58:40;;;;;;;6.15;3.97;;;;;;;19.08;100.00;99879.94;5076805;28;20028;-72
2022/09/15 02:01:16;;;;;;;8.20;5.50;;;;;;;19.01;100.00;99876.97;5057146;28;20447;-72
2022/09/15 02:03:54;;;;;;;6.13;4.90;;;;;;;19.01;100.00;99879.78;5036262;28;20542;-72
2022/09/15 02:06:35;;;;;;;9.10;4.78;;;;;;;19.00;100.00;99881.81;5042912;28;20062;-72
2022/09/15 02:09:25;;;;;;;10.30;6.55;;;;;;;18.97;100.00;99883.34;5078188;28;20032;-72
2022/09/15 02:12:00;;;;;;;10.13;5.97;;;;;;;18.96;100.00;99887.31;5074301;28;20059;-72
2022/09/15 02:14:46;;;;;;;11.30;6.13;;;;;;;18.91;100.00;99886.78;5074770;28;20028;-72
2022/09/15 02:17:14;;;;;;;10.57;6.55;;;;;;;18.88;100.00;99887.53;5095376;28;20035;-72
2022/09/15 02:19:40;;;;;;;7.70;5.63;;;;;;;18.87;100.00;99891.53;5059247;28;20035;-72
2022/09/15 02:22:11;;;;;;;10.82;6.47;;;;;;;18.83;100.00;99891.41;5060970;28;20107;-72
2022/09/15 02:24:39;;;;;;;6.88;5.10;;;;;;;18.81;100.00;99888.19;5097899;28;20028;-72
2022/09/15 02:27:08;;;;;;;7.93;4.80;;;;;;;18.81;100.00;99888.19;5074763;28;20067;-72
2022/09/15 02:29:34;;;;;;;7.63;4.07;;;;;;;18.81;100.00;99884.56;5049274;28;20063;-72
2022/09/15 02:32:01;;;;;;;8.77;3.78;;;;;;;18.81;100.00;99885.38;5072879;28;20377;-72
2022/09/15 02:34:30;;;;;;;9.65;5.00;;;;;;;18.75;100.00;99890.44;5092543;28;20064;-72
2022/09/15 02:36:55;;;;;;;8.68;6.05;;;;;;;18.73;100.00;99887.16;5079897;28;20024;-72
2022/09/15 02:39:26;;;;;;;10.05;5.25;;;;;;;18.72;100.00;99890.31;5055786;28;20500;-72
2022/09/15 02:41:52;;;;;;;8.10;5.97;;;;;;;18.71;100.00;99883.06;5059781;28;20103;-72
2022/09/15 02:44:18;;;;;;;8.15;5.85;;;;;;;18.66;100.00;99894.59;5060519;28;20024;-72
2022/09/15 02:46:43;;;;;;;7.28;5.45;;;;;;;18.66;100.00;99883.34;5060848;28;20028;-72
2022/09/15 02:49:09;;;;;;;7.63;6.07;;;;;;;18.60;100.00;99893.22;5098412;28;20047;-72
2022/09/15 02:51:34;;;;;;;10.75;6.82;;;;;;;18.62;100.00;99893.69;5093883;28;20051;-72
2022/09/15 02:54:00;;;;;;;8.38;4.47;;;;;;;18.62;100.00;99885.25;5098274;28;20062;-72
2022/09/15 02:56:25;;;;;;;7.40;4.45;;;;;;;18.64;100.00;99882.91;5075503;28;20032;-72
2022/09/15 02:58:51;;;;;;;11.30;6.65;;;;;;;18.54;100.00;99884.25;5098436;28;20431;-72
2022/09/15 03:01:16;;;;;;;10.93;6.20;;;;;;;18.54;100.00;99890.69;5076529;28;20044;-72
2022/09/15 03:03:42;;;;;;;5.50;4.38;;;;;;;18.53;100.00;99889.06;5094731;28;20036;-72
2022/09/15 03:06:17;;;;;;;9.18;5.68;;;;;;;18.48;100.00;99896.97;5097908;28;20032;-72
2022/09/15 03:08:52;;;;;;;9.40;4.85;;;;;;;18.54;100.00;99890.69;5067289;28;20488;-72
2022/09/15 03:11:19;;;;;;;9.68;5.60;;;;;;;18.57;100.00;99893.97;5061564;28;20031;-72
2022/09/15 03:13:45;;;;;;;6.93;3.90;;;;;;;18.57;100.00;99885.53;5073774;28;20048;-72
2022/09/15 03:16:11;;;;;;;8.80;5.60;;;;;;;18.53;100.00;99891.88;5077513;28;20032;-72
2022/09/15 03:18:37;;;;;;;5.40;3.67;;;;;;;18.57;100.00;99894.78;5093021;28;20056;-72
2022/09/15 03:21:03;;;;;;;5.72;3.40;;;;;;;18.61;100.00;99895.69;5077777;28;20031;-72
2022/09/15 03:23:28;;;;;;;6.25;3.35;;;;;;;18.60;100.00;99901.66;5097425;28;20051;-72
2022/09/15 03:25:54;;;;;;;7.30;3.35;;;;;;;18.59;100.00;99900.84;5097598;28;20434;-72
2022/09/15 03:28:19;;;;;;;5.47;3.30;;;;;;;18.60;100.00;99899.66;5078965;28;20040;-72
2022/09/15 03:30:45;;;;;;;3.97;3.30;;;;;;;18.60;100.00;99902.47;5075483;28;20028;-72
2022/09/15 03:33:11;;;;;;;8.38;3.53;;;;;;;18.58;100.00;99896.41;5097236;28;20032;-72
2022/09/15 03:35:37;;;;;;;8.13;3.53;;;;;;;18.59;100.00;99909.28;5096583;28;20028;-72
2022/09/15 03:38:03;;;;;;;4.88;3.72;;;;;;;18.58;100.00;99904.84;5093105;28;20553;-72
2022/09/15 03:40:28;;;;;;;5.82;3.70;;;;;;;18.58;100.00;99910.44;5097291;28;20028;-72
2022/09/15 03:42:54;;;;;;;7.35;3.97;;;;;;;18.59;100.00;99908.47;5045361;28;20024;-72
2022/09/15 03:45:19;;;;;;;8.15;4.00;;;;;;;18.57;100.00;99906.03;5076644;28;20038;-72
2022/09/15 03:47:44;;;;;;;5.18;3.30;;;;;;;18.58;100.00;99913.28;5095967;28;20028;-72
2022/09/15 03:50:10;;;;;;;5.47;3.80;;;;;;;18.58;100.00;99912.47;5094190;28;20039;-72
2022/09/15 03:52:35;;;;;;;5.50;3.90;;;;;;;18.61;100.00;99911.72;5097145;28;20423;-72
2022/09/15 03:55:01;;;;;;;5.30;3.85;;;;;;;18.60;100.00;99916.53;5092639;28;20032;-72
2022/09/15 03:57:27;;;;;;;8.75;3.85;;;;;;;18.60;100.00;99918.53;5097234;28;20028;-72
2022/09/15 03:59:52;;;;;;;4.93;3.30;;;;;;;18.60;100.00;99918.53;5078367;28;20024;-72
2022/09/15 04:02:18;;;;;;;5.20;3.72;;;;;;;18.58;100.00;99921.69;5096662;28;20028;-72
2022/09/15 04:04:43;;;;;;;4.78;4.07;;;;;;;18.62;100.00;99924.63;5074630;28;20024;-72
2022/09/15 04:07:09;;;;;;;5.57;4.75;;;;;;;18.60;100.00;99924.97;5096636;28;20492;-72
2022/09/15 04:09:36;;;;;;;6.28;4.32;;;;;;;18.61;100.00;99928.59;5094214;28;20032;-72
2022/09/15 04:12:02;;;;;;;9.60;5.80;;;;;;;18.59;100.00;99922.53;5076134;28;20027;-72
2022/09/15 04:14:28;;;;;;;7.57;4.90;;;;;;;18.61;100.00;99928.59;5078288;28;20036;-72
2022/09/15 04:16:53;;;;;;;8.02;5.63;;;;;;;18.60;100.00;99927.78;5078487;28;20054;-72
2022/09/15 04:19:19;;;;;;;7.32;4.28;;;;;;;18.56;100.00;99918.47;5089967;28;20443;-72
2022/09/15 04:21:46;;;;;;;8.05;4.90;;;;;;;18.58;100.00;99929.34;5096459;28;20057;-72
2022/09/15 04:24:12;;;;;;;11.50;4.40;;;;;;;18.54;100.00;99923.63;5092861;28;20032;-72
2022/09/15 04:26:37;;;;;;;9.15;5.13;;;;;;;18.57;100.00;99922.09;5096487;28;20039;-72
2022/09/15 04:29:04;;;;;;;6.28;4.22;;;;;;;18.57;100.00;99931.31;5095898;28;20024;-72
2022/09/15 04:31:29;;;;;;;6.38;4.80;;;;;;;18.59;100.00;99930.97;5077488;28;20035;-72
2022/09/15 04:33:55;;;;;;;6.97;4.70;;;;;;;18.57;100.00;99927.72;5078042;28;20154;-72
2022/09/15 04:36:22;;;;;;;8.15;4.57;;;;;;;18.55;100.00;99930.88;5077987;28;20028;-72
2022/09/15 04:38:49;;;;;;;8.43;4.90;;;;;;;18.54;100.00;99934.88;5096125;28;20476;-72
2022/09/15 04:41:14;;;;;;;8.10;4.68;;;;;;;18.52;100.00;99935.22;5096355;28;20036;-72
2022/09/15 04:43:41;;;;;;;8.25;5.38;;;;;;;18.57;100.00;99944.56;5077899;28;20093;-72
2022/09/15 04:46:07;;;;;;;8.57;5.38;;;;;;;18.53;100.00;99936.06;5094402;28;20031;-72
2022/09/15 04:48:32;;;;;;;8.00;5.30;;;;;;;18.50;100.00;99937.59;5095748;28;20503;-72
2022/09/15 04:51:02;;;;;;;6.85;5.30;;;;;;;18.50;100.00;99939.59;5053413;28;20035;-72
2022/09/15 04:53:28;;;;;;;8.25;5.25;;;;;;;18.50;100.00;99939.59;5057511;28;20058;-72
2022/09/15 04:56:00;;;;;;;8.77;5.10;;;;;;;18.49;100.00;99938.75;5077998;28;20109;-72
2022/09/15 04:58:26;;;;;;;9.65;5.03;;;;;;;18.47;100.00;99941.13;5096278;28;20054;-72
2022/09/15 05:00:52;;;;;;;10.23;5.25;;;;;;;18.47;100.00;99943.09;5091422;28;20048;-72
2022/09/15 05:03:17;;;;;;;8.15;5.20;;;;;;;18.47;100.00;99941.13;5095349;28;20035;-72
2022/09/15 05:05:42;;;;;;;8.20;4.85;;;;;;;18.44;100.00;99941.03;5078013;28;20035;-72
2022/09/15 05:08:08;;;;;;;7.93;5.50;;;;;;;18.46;100.00;99938.66;5092762;28;20036;-72
2022/09/15 05:10:33;;;;;;;9.23;6.32;;;;;;;18.45;100.00;99937.84;5095950;28;20423;-72
2022/09/15 05:12:59;;;;;;;6.82;5.15;;;;;;;18.44;100.00;99935.41;5091818;28;20028;-72
2022/09/15 05:15:24;;;;;;;9.18;5.18;;;;;;;18.44;100.00;99944.66;5077240;28;20093;-72
2022/09/15 05:17:50;;;;;;;11.35;6.03;;;;;;;18.40;100.00;99943.75;5093171;28;20020;-72
2022/09/15 05:20:16;;;;;;;10.70;7.25;;;;;;;18.38;100.00;99943.28;5091346;28;20093;-72
2022/09/15 05:22:42;;;;;;;12.77;7.70;;;;;;;18.36;100.00;99945.66;5095722;28;20043;-72
2022/09/15 05:25:08;;;;;;;12.90;6.93;;;;;;;18.38;100.00;99950.91;5095458;28;20102;-72
2022/09/15 05:27:33;;;;;;;9.18;5.25;;;;;;;18.34;100.00;99956.44;5095805;28;20059;-72
2022/09/15 05:29:59;;;;;;;8.48;5.13;;;;;;;18.33;100.00;99956.78;5095104;28;20032;-72
2022/09/15 05:32:25;;;;;;;9.40;5.68;;;;;;;18.29;100.00;99953.88;5077419;28;20028;-72
2022/09/15 05:34:50;;;;;;;8.05;5.63;;;;;;;18.29;100.00;99962.31;5077071;28;20034;-72
2022/09/15 05:37:16;;;;;;;9.38;6.15;;;;;;;18.26;100.00;99965.84;5095775;28;20031;-72
2022/09/15 05:39:41;;;;;;;9.80;6.30;;;;;;;18.23;100.00;99970.19;5077294;28;20035;-72
2022/09/15 05:42:07;;;;;;;12.35;7.38;;;;;;;18.19;100.00;99971.25;5080104;28;20043;-72
2022/09/15 05:44:33;;;;;;;13.68;7.85;;;;;;;18.13;100.00;99981.13;5081323;28;20032;-72
2022/09/15 05:46:59;;;;;;;15.93;10.73;;;;;;;18.08;100.00;99977.41;5080047;28;20028;-69
2022/09/15 05:49:24;;;;;;;12.60;9.05;;;;;;;18.06;100.00;99982.56;5099631;28;20107;-69
2022/09/15 05:51:50;;;;;;;14.40;9.70;;;;;;;18.03;100.00;99988.09;5095256;28;20032;-69
2022/09/15 05:54:15;;;;;;;19.77;13.13;;;;;;;17.93;100.00;99983.78;5099305;28;20392;-69
2022/09/15 05:56:41;;;;;;;17.67;12.10;;;;;;;17.82;100.00;99977.84;5064486;28;20024;-69
2022/09/15 05:59:06;;;;;;;15.25;10.15;;;;;;;17.86;100.00;99990.00;5064132;28;20028;-69
2022/09/15 06:01:32;;;;;;;11.73;7.15;;;;;;;17.84;100.00;99994.34;5098878;28;20397;-69
2022/09/15 06:03:57;;;;;;;10.68;7.43;;;;;;;17.88;100.00;100002.88;5080601;28;20031;-69
2022/09/15 06:06:23;;;;;;;13.30;9.13;;;;;;;17.85;100.00;100004.41;5080944;28;20048;-69
2022/09/15 06:08:54;;;;;;;19.90;13.55;;;;;;;17.76;100.00;99995.28;5063078;28;20050;-69
2022/09/15 06:11:21;;;;;;;14.15;8.90;;;;;;;17.75;100.00;100000.06;5037212;28;20028;-69
2022/09/15 06:13:47;;;;;;;16.75;10.60;;;;;;;17.76;100.00;100000.88;5062224;28;20077;-69
2022/09/15 06:16:18;;;;;;;11.70;8.25;;;;;;;17.75;100.00;100004.88;5064020;28;20032;-69
2022/09/15 06:18:43;;;;;;;14.88;9.93;;;;;;;17.75;100.00;100016.13;5056435;28;20096;-69
2022/09/15 06:21:11;;;;;;;19.35;13.50;;;;;;;17.67;100.00;100017.06;5053664;28;20516;-69
2022/09/15 06:23:36;;;;;;;24.00;16.67;;;;;;;17.60;100.00;100023.25;5061576;28;20020;-69
2022/09/15 06:26:08;;;;;;;15.32;11.48;;;;;;;17.65;100.00;100023.84;5050710;28;20036;-69
2022/09/15 06:28:33;;;;;;;14.57;10.73;;;;;;;17.59;100.00;100036.47;5044590;28;20697;-69
2022/09/15 06:30:59;;;;;;;20.77;15.20;;;;;;;17.52;100.00;100039.06;5080812;28;20135;-69
2022/09/15 06:33:25;;;;;;;20.77;14.00;;;;;;;17.50;100.00;100049.03;5080305;28;20077;-69
2022/09/15 06:35:51;;;;;;;19.13;13.80;;;;;;;17.46;100.00;100048.88;5051530;28;20024;-70
2022/09/15 06:38:16;;;;;;;17.15;13.18;;;;;;;17.45;100.00;100050.06;5080373;28;20035;-69
2022/09/15 06:40:42;;;;;;;21.50;13.55;;;;;;;17.50;100.00;100055.44;5080795;28;20521;-70
2022/09/15 06:43:08;;;;;;;15.23;11.13;;;;;;;17.52;100.00;100053.09;5043717;28;20032;-69
2022/09/15 06:45:33;;;;;;;13.80;10.80;;;;;;;17.55;100.00;100046.78;5080339;28;20032;-69
2022/09/15 06:47:59;;;;;;;16.65;11.73;;;;;;;17.54;100.00;100047.13;5044791;28;20025;-69
2022/09/15 06:50:24;;;;;;;26.75;18.00;;;;;;;17.53;100.00;100054.75;5053479;28;20029;-69
2022/09/15 06:52:49;;;;;;;23.35;16.80;;;;;;;17.46;100.00;100060.13;5067844;28;20047;-69
2022/09/15 06:55:15;;;;;;;21.33;15.27;;;;;;;17.49;100.00;100064.22;5061378;28;20392;-69
2022/09/15 06:57:40;;;;;;;23.40;16.02;;;;;;;17.47;100.00;100073.00;5078454;28;20116;-70
2022/09/15 07:00:07;;;;;;;13.98;10.75;;;;;;;17.59;100.00;100081.41;5060292;28;21347;-69
2022/09/15 07:02:33;;;;;;;15.10;9.80;;;;;;;17.65;100.00;100088.41;5096217;28;20028;-69
2022/09/15 07:04:59;;;;;;;14.32;9.45;;;;;;;17.72;100.00;100096.28;5059630;28;20060;-70
2022/09/15 07:07:26;;;;;;;17.13;11.25;;;;;;;17.77;100.00;100096.00;5058141;28;20028;-69
2022/09/15 07:09:51;;;;;;;15.52;8.55;;;;;;;17.82;100.00;100095.81;5059228;28;20032;-71
2022/09/15 07:12:17;;;;;;;11.32;8.35;;;;;;;17.92;100.00;100097.31;5045454;28;20025;-70
2022/09/15 07:14:42;;;;;;;13.85;9.00;;;;;;;17.96;100.00;100097.44;5042179;28;20036;-70
2022/09/15 07:17:08;;;;;;;14.65;11.63;;;;;;;17.96;100.00;100106.66;5075290;28;20042;-69
2022/09/15 07:19:33;;;;;;;16.17;11.48;;;;;;;17.98;100.00;100115.56;5056134;28;20028;-69
2022/09/15 07:21:59;;;;;;;18.08;10.93;;;;;;;17.99;100.00;100105.16;5076515;28;20036;-70
2022/09/15 07:24:24;;;;;;;13.27;7.80;;;;;;;18.06;100.00;100117.44;5079658;28;20027;-70
2022/09/15 07:26:50;;;;;;;19.95;13.13;;;;;;;18.09;100.00;100122.34;5062693;28;20061;-70
2022/09/15 07:29:16;;;;;;;21.13;13.95;;;;;;;18.12;100.00;100120.81;5079069;28;20544;-70
2022/09/15 07:31:41;;;;;;;13.75;10.25;;;;;;;18.18;100.00;100125.00;5059973;28;20024;-70
2022/09/15 07:34:07;;;;;;;27.58;19.67;;;;;;;18.08;100.00;100120.72;5062391;28;20020;-70
2022/09/15 07:36:32;;;;;;;20.77;15.00;;;;;;;18.18;100.00;100118.56;5060758;28;20024;-70
2022/09/15 07:38:58;;;;;;;18.02;13.40;;;;;;;18.23;100.00;100121.16;5067575;28;20565;-70
2022/09/15 07:41:25;;;;;;;15.75;11.07;;;;;;;18.30;100.00;100132.59;5079126;28;20519;-69
2022/09/15 07:43:52;;;;;;;15.65;10.07;;;;;;;18.41;100.00;100128.09;5061968;28;20035;-68
2022/09/15 07:46:19;;;;;;;18.88;13.52;;;;;;;18.50;100.00;100120.38;5059491;28;20494;-69
2022/09/15 07:48:49;;;;;;;20.90;13.02;;;;;;;18.64;100.00;100125.59;5041794;28;20029;-69
2022/09/15 07:51:14;;;;;;;18.50;12.02;;;;;;;18.76;100.00;100127.56;5034053;28;20554;-69
2022/09/15 07:53:40;;;;;;;15.93;10.93;;;;;;;18.92;100.00;100124.78;5062147;28;20035;-69
2022/09/15 07:56:06;;;;;;;17.40;11.77;;;;;;;19.04;100.00;100124.69;5033001;28;20028;-69
2022/09/15 07:58:32;;;;;;;16.58;9.80;;;;;;;19.17;100.00;100136.72;5058931;28;20058;-70
2022/09/15 08:01:05;;;;;;;11.93;7.55;;;;;;;19.31;100.00;100133.47;5078131;28;20508;-70
2022/09/15 08:03:31;;;;;;;14.43;8.23;;;;;;;19.44;100.00;100135.00;5059866;28;20104;-69
2022/09/15 08:06:00;;;;;;;13.65;8.55;;;;;;;19.53;100.00;100140.44;5056750;28;20432;-69
2022/09/15 08:08:26;;;;;;;14.88;8.07;;;;;;;19.60;99.36;100135.81;5040529;28;20032;-69
2022/09/15 08:10:51;;;;;;;12.77;7.53;;;;;;;19.64;98.63;100138.75;5060822;28;20085;-69
2022/09/15 08:13:17;;;;;;;8.93;6.03;;;;;;;19.70;98.45;100137.31;5061650;28;20039;-69
2022/09/15 08:15:43;;;;;;;10.45;7.13;;;;;;;19.74;98.03;100141.00;5051495;28;20028;-69
2022/09/15 08:18:09;;;;;;;10.90;6.72;;;;;;;19.74;97.18;100138.19;5077464;28;20036;-69
2022/09/15 08:20:37;;;;;;;13.32;8.15;;;;;;;19.75;96.90;100147.47;5061703;28;20047;-69
2022/09/15 08:23:03;;;;;;;9.20;5.78;;;;;;;19.80;96.83;100153.63;5058186;28;20368;-69
2022/09/15 08:25:29;;;;;;;13.75;9.57;;;;;;;19.75;96.33;100161.53;5043574;28;20081;-69
2022/09/15 08:27:55;;;;;;;13.40;8.75;;;;;;;19.77;96.66;100159.19;5044839;28;20034;-69
2022/09/15 08:30:21;;;;;;;14.57;8.00;;;;;;;19.86;96.49;100162.63;5057663;28;20063;-69
2022/09/15 08:32:47;;;;;;;12.15;8.45;;;;;;;19.94;96.46;100160.81;5039574;28;20023;-69
2022/09/15 08:35:13;;;;;;;11.27;6.53;;;;;;;20.06;96.37;100167.16;5059060;28;20040;-69
2022/09/15 08:37:39;;;;;;;11.65;8.50;;;;;;;20.17;95.59;100173.06;5061785;28;20047;-69
2022/09/15 08:40:05;;;;;;;17.73;10.13;;;;;;;20.20;93.76;100177.94;5061053;28;20028;-69
2022/09/15 08:42:30;;;;;;;15.38;9.20;;;;;;;20.28;93.42;100168.47;5061586;28;20035;-69
2022/09/15 08:45:01;;;;;;;14.65;9.32;;;;;;;20.33;93.48;100175.00;5035665;28;20032;-69
2022/09/15 08:47:36;;;;;;;15.20;11.32;;;;;;;20.34;93.36;100176.63;5059044;28;20028;-69
2022/09/15 08:50:02;;;;;;;13.27;8.50;;;;;;;20.48;93.78;100179.78;5076343;28;20488;-69
2022/09/15 08:52:34;;;;;;;11.73;8.32;;;;;;;20.62;93.03;100176.50;5096190;28;20063;-70
2022/09/15 08:55:26;;;;;;;16.40;8.57;;;;;;;20.80;92.26;100174.84;5058715;28;20484;-70
2022/09/15 08:57:52;;;;;;;13.20;9.02;;;;;;;20.94;91.14;100177.13;5063531;28;20753;-70
2022/09/15 09:00:17;;;;;;;14.50;8.68;;;;;;;21.02;89.79;100178.09;5029993;28;20082;-70
2022/09/15 09:03:11;;;;;;;11.20;6.60;;;;;;;21.12;89.14;100177.50;5058581;28;20055;-69
2022/09/15 09:05:48;;;;;;;8.75;5.93;;;;;;;21.24;88.58;100180.16;5094979;28;20027;-69
2022/09/15 09:08:17;;;;;;;10.18;4.95;;;;;;;21.33;88.14;100186.38;5077506;28;20028;-69
2022/09/15 09:10:52;;;;;;;9.98;7.32;;;;;;;21.30;86.71;100189.94;5096124;28;20031;-69
2022/09/15 09:13:55;;;;;;;8.50;5.40;;;;;;;21.39;86.97;100193.38;5045096;28;20024;-69
2022/09/15 09:16:36;;;;;;;13.52;6.85;;;;;;;21.46;87.24;100197.53;5077038;28;20384;-70
2022/09/15 09:19:07;;;;;;;8.88;5.10;;;;;;;21.59;86.86;100201.78;5092808;28;20044;-69
2022/09/15 09:21:35;;;;;;;11.77;7.25;;;;;;;21.70;86.11;100199.16;5078118;28;20393;-69
2022/09/15 09:24:04;;;;;;;11.88;7.22;;;;;;;21.81;84.53;100202.97;5055395;28;20035;-69
2022/09/15 09:26:30;;;;;;;8.88;5.88;;;;;;;21.87;83.27;100201.50;5031156;28;20439;-69
2022/09/15 09:29:21;;;;;;;6.35;4.43;;;;;;;21.98;82.49;100207.31;5060725;28;20024;-70
2022/09/15 09:31:48;;;;;;;7.43;4.43;;;;;;;22.05;81.88;100205.41;5060427;28;20032;-70
2022/09/15 09:34:26;;;;;;;8.68;4.88;;;;;;;22.03;80.27;100204.97;5061337;28;20075;-70
2022/09/15 09:36:54;;;;;;;7.78;3.85;;;;;;;22.13;80.74;100209.19;5076671;28;20165;-70
2022/09/15 09:39:19;;;;;;;11.80;5.20;;;;;;;22.08;80.58;100206.66;5049435;28;20043;-69
2022/09/15 09:41:45;;;;;;;10.65;5.65;;;;;;;22.12;80.01;100213.22;5040349;28;20028;-69
2022/09/15 09:44:13;;;;;;;8.32;4.40;;;;;;;22.21;80.48;100205.28;5060642;28;20051;-69
2022/09/15 09:46:39;;;;;;;10.82;5.65;;;;;;;22.27;79.44;100202.97;5054651;28;20024;-70
2022/09/15 09:49:23;;;;;;;7.50;4.25;;;;;;;22.43;79.21;100203.59;5077535;28;20032;-70
2022/09/15 09:51:51;;;;;;;7.15;3.72;;;;;;;22.53;78.98;100202.13;5058514;28;20043;-70
2022/09/15 09:54:19;;;;;;;11.45;5.13;;;;;;;22.66;76.00;100197.03;5037816;28;20025;-69
2022/09/15 09:56:48;;;;;;;7.47;4.03;;;;;;;22.73;75.88;100199.94;5059401;28;20028;-70
2022/09/15 09:59:38;;;;;;;10.98;4.72;;;;;;;22.87;72.60;100203.00;5038753;28;20126;-70
2022/09/15 10:02:06;;;;;;;8.98;4.80;;;;;;;22.99;71.46;100201.94;5088645;28;20051;-70
2022/09/15 10:04:32;;;;;;;10.70;4.25;;;;;;;23.06;70.49;100201.22;5073805;28;20031;-70
2022/09/15 10:06:58;;;;;;;6.85;3.90;;;;;;;23.20;71.88;100201.38;5060844;28;20469;-70
2022/09/15 10:09:23;;;;;;;7.10;3.45;;;;;;;23.35;72.34;100214.50;5040465;28;20055;-77
2022/09/15 10:11:53;;;;;;;9.90;4.90;;;;;;;23.36;71.15;100206.81;5076927;28;20550;-74
2022/09/15 10:14:21;;;;;;;8.63;4.88;;;;;;;23.50;71.94;100200.47;5042786;28;20038;-74
2022/09/15 10:17:13;;;;;;;7.85;4.45;;;;;;;23.51;71.37;100213.44;5091618;28;20031;-74
2022/09/15 10:19:41;;;;;;;6.25;3.38;;;;;;;23.61;71.92;100201.41;5075059;28;20031;-74
2022/09/15 10:22:06;;;;;;;9.25;4.70;;;;;;;23.66;72.39;100206.72;5093413;28;20043;-74
2022/09/15 10:24:34;;;;;;;9.07;4.20;;;;;;;23.73;72.45;100201.13;5063459;28;20024;-74
2022/09/15 10:27:17;;;;;;;7.72;4.25;;;;;;;23.80;72.08;100204.03;5058860;28;20028;-74
2022/09/15 10:29:43;;;;;;;5.68;3.70;;;;;;;23.82;71.49;100204.47;5056282;28;20025;-74
2022/09/15 10:32:21;;;;;;;10.00;4.30;;;;;;;23.88;70.25;100207.75;5056720;28;20044;-74
2022/09/15 10:34:50;;;;;;;11.15;5.18;;;;;;;23.75;68.68;100212.09;5080891;28;20081;-74
2022/09/15 10:37:35;;;;;;;8.70;4.70;;;;;;;23.68;68.44;100207.16;5097533;28;20052;-74
2022/09/15 10:40:27;;;;;;;7.47;3.65;;;;;;;23.73;68.67;100209.63;5037724;28;20043;-75
2022/09/15 10:43:13;;;;;;;8.48;5.10;;;;;;;23.69;68.77;100205.13;5080224;28;20089;-75
2022/09/15 10:45:39;;;;;;;7.35;4.78;;;;;;;23.70;69.72;100207.56;5059140;28;20066;-75
2022/09/15 10:48:23;;;;;;;12.07;5.97;;;;;;;23.69;69.86;100197.44;5080084;28;20484;-74
2022/09/15 10:50:53;;;;;;;8.38;3.95;;;;;;;23.80;70.27;100204.03;5057838;28;20037;-74
2022/09/15 10:53:28;;;;;;;10.35;4.47;;;;;;;23.86;69.89;100199.63;5078976;28;20020;-74
2022/09/15 10:56:26;;;;;;;7.50;4.20;;;;;;;23.93;69.43;100206.56;5055290;28;20028;-74
2022/09/15 10:59:29;;;;;;;9.45;4.35;;;;;;;24.00;68.87;100206.63;5077128;28;20107;-74
2022/09/15 11:02:10;;;;;;;6.53;4.13;;;;;;;24.06;68.59;100207.88;5097315;28;20056;-74
2022/09/15 11:04:47;;;;;;;10.50;4.10;;;;;;;24.11;68.62;100203.88;5075496;28;20043;-74
2022/09/15 11:07:45;;;;;;;12.73;6.00;;;;;;;24.01;66.08;100202.56;5093670;28;20036;-74
2022/09/15 11:10:29;;;;;;;8.93;4.80;;;;;;;24.06;67.41;100200.19;5093847;28;20036;-74
2022/09/15 11:13:20;;;;;;;9.88;5.50;;;;;;;24.00;64.29;100200.97;5065014;28;20020;-74
2022/09/15 11:16:02;;;;;;;10.40;6.20;;;;;;;23.97;64.92;100204.59;5096716;28;20369;-74
2022/09/15 11:18:33;;;;;;;9.60;4.90;;;;;;;24.03;64.21;100203.00;5076968;28;20448;-74
2022/09/15 11:21:20;;;;;;;7.78;4.43;;;;;;;24.17;65.21;100203.13;5079266;28;20272;-74
2022/09/15 11:23:53;;;;;;;8.63;4.50;;;;;;;24.23;65.37;100204.38;5053707;28;20044;-73
2022/09/15 11:26:51;;;;;;;9.75;4.82;;;;;;;24.24;61.77;100199.53;5047236;28;20040;-74
2022/09/15 11:29:21;;;;;;;9.80;4.05;;;;;;;24.33;61.77;100193.50;5046718;28;20446;-74